sensor_id;sensor_type;location;lat;lon;timestamp;pressure;altitude;pressure_sealevel;temperature;humidity
39301;BME280;25019;42.626;23.380;2023-10-13T00:00:26;94950.25;;;10.40;98.46
39301;BME280;25019;42.626;23.380;2023-10-13T00:02:57;94948.41;;;10.40;98.88
39301;BME280;25019;42.626;23.380;2023-10-13T00:05:29;94937.19;;;10.38;98.81
39301;BME280;25019;42.626;23.380;2023-10-13T00:08:02;94944.47;;;10.31;98.65
39301;BME280;25019;42.626;23.380;2023-10-13T00:10:29;94878.75;;;9.85;98.73
39301;BME280;25019;42.626;23.380;2023-10-13T00:12:56;94931.66;;;10.16;99.52
39301;BME280;25019;42.626;23.380;2023-10-13T00:15:32;94935.81;;;10.24;99.33
39301;BME280;25019;42.626;23.380;2023-10-13T00:18:06;94930.97;;;10.20;99.24
39301;BME280;25019;42.626;23.380;2023-10-13T00:20:42;94912.41;;;10.09;99.42
39301;BME280;25019;42.626;23.380;2023-10-13T00:23:14;94921.28;;;10.14;99.06
39301;BME280;25019;42.626;23.380;2023-10-13T00:25:41;94925.66;;;10.20;99.52
39301;BME280;25019;42.626;23.380;2023-10-13T00:28:18;94854.19;;;9.66;99.56
39301;BME280;25019;42.626;23.380;2023-10-13T00:30:50;94930.38;;;10.18;99.22
39301;BME280;25019;42.626;23.380;2023-10-13T00:33:18;94920.34;;;10.09;99.53
39301;BME280;25019;42.626;23.380;2023-10-13T00:35:45;94930.28;;;10.13;99.51
39301;BME280;25019;42.626;23.380;2023-10-13T00:38:13;94924.16;;;10.13;99.54
39301;BME280;25019;42.626;23.380;2023-10-13T00:40:39;94926.13;;;10.05;99.69
39301;BME280;25019;42.626;23.380;2023-10-13T00:43:05;94910.34;;;9.87;100.00
39301;BME280;25019;42.626;23.380;2023-10-13T00:48:39;94935.50;;;9.96;100.00
39301;BME280;25019;42.626;23.380;2023-10-13T00:51:12;94910.66;;;9.79;100.00
39301;BME280;25019;42.626;23.380;2023-10-13T00:53:56;94888.28;;;9.63;100.00
39301;BME280;25019;42.626;23.380;2023-10-13T00:56:25;94891.63;;;9.58;100.00
39301;BME280;25019;42.626;23.380;2023-10-13T00:58:56;94924.50;;;9.81;100.00
39301;BME280;25019;42.626;23.380;2023-10-13T01:01:30;94935.38;;;9.91;100.00
39301;BME280;25019;42.626;23.380;2023-10-13T01:03:58;94941.72;;;9.90;100.00
39301;BME280;25019;42.626;23.380;2023-10-13T01:06:25;94945.84;;;9.86;100.00
39301;BME280;25019;42.626;23.380;2023-10-13T01:09:03;94864.88;;;9.36;100.00
39301;BME280;25019;42.626;23.380;2023-10-13T01:11:41;94943.09;;;9.81;100.00
39301;BME280;25019;42.626;23.380;2023-10-13T01:14:14;94939.63;;;9.80;100.00
39301;BME280;25019;42.626;23.380;2023-10-13T01:16:43;94939.41;;;9.82;100.00
39301;BME280;25019;42.626;23.380;2023-10-13T01:19:19;94942.16;;;9.75;100.00
39301;BME280;25019;42.626;23.380;2023-10-13T01:21:55;94884.56;;;9.28;100.00
39301;BME280;25019;42.626;23.380;2023-10-13T01:24:28;94875.91;;;9.21;100.00
39301;BME280;25019;42.626;23.380;2023-10-13T01:26:57;94934.44;;;9.62;100.00
39301;BME280;25019;42.626;23.380;2023-10-13T01:29:25;94955.66;;;9.62;100.00
39301;BME280;25019;42.626;23.380;2023-10-13T01:31:54;94954.03;;;9.61;100.00
39301;BME280;25019;42.626;23.380;2023-10-13T01:34:20;94944.34;;;9.54;100.00
39301;BME280;25019;42.626;23.380;2023-10-13T01:36:52;94949.28;;;9.63;100.00
39301;BME280;25019;42.626;23.380;2023-10-13T01:39:25;94891.34;;;9.24;100.00
39301;BME280;25019;42.626;23.380;2023-10-13T01:41:57;94944.47;;;9.59;100.00
39301;BME280;25019;42.626;23.380;2023-10-13T01:44:24;94951.59;;;9.59;100.00
39301;BME280;25019;42.626;23.380;2023-10-13T01:46:53;94949.41;;;9.56;100.00
39301;BME280;25019;42.626;23.380;2023-10-13T01:49:19;94939.34;;;9.46;100.00
39301;BME280;25019;42.626;23.380;2023-10-13T01:51:48;94960.59;;;9.58;100.00
39301;BME280;25019;42.626;23.380;2023-10-13T01:54:14;94959.56;;;9.59;100.00
39301;BME280;25019;42.626;23.380;2023-10-13T01:56:41;94957.94;;;9.58;100.00
39301;BME280;25019;42.626;23.380;2023-10-13T01:59:11;94952.88;;;9.56;100.00
39301;BME280;25019;42.626;23.380;2023-10-13T02:01:37;94889.72;;;9.11;100.00
39301;BME280;25019;42.626;23.380;2023-10-13T02:04:03;94927.44;;;9.37;100.00
39301;BME280;25019;42.626;23.380;2023-10-13T02:06:30;94948.81;;;9.54;100.00
39301;BME280;25019;42.626;23.380;2023-10-13T02:09:00;94836.91;;;8.86;100.00
39301;BME280;25019;42.626;23.380;2023-10-13T02:11:36;94926.91;;;9.47;100.00
39301;BME280;25019;42.626;23.380;2023-10-13T02:14:03;94920.09;;;9.39;100.00
39301;BME280;25019;42.626;23.380;2023-10-13T02:16:28;94936.56;;;9.41;100.00
39301;BME280;25019;42.626;23.380;2023-10-13T02:18:57;94936.56;;;9.41;100.00
39301;BME280;25019;42.626;23.380;2023-10-13T02:21:33;94880.59;;;9.07;100.00
39301;BME280;25019;42.626;23.380;2023-10-13T02:24:07;94918.91;;;9.23;100.00
39301;BME280;25019;42.626;23.380;2023-10-13T02:26:40;94935.97;;;9.27;100.00
39301;BME280;25019;42.626;23.380;2023-10-13T02:29:05;94858.56;;;8.82;100.00
39301;BME280;25019;42.626;23.380;2023-10-13T02:31:40;94927.88;;;9.22;100.00
39301;BME280;25019;42.626;23.380;2023-10-13T02:34:06;94937.81;;;9.26;100.00
39301;BME280;25019;42.626;23.380;2023-10-13T02:36:38;94938.63;;;9.27;100.00
39301;BME280;25019;42.626;23.380;2023-10-13T02:39:18;94935.97;;;9.27;100.00
39301;BME280;25019;42.626;23.380;2023-10-13T02:41:51;94927.31;;;9.20;100.00
39301;BME280;25019;42.626;23.380;2023-10-13T02:44:16;94886.56;;;8.90;100.00
39301;BME280;25019;42.626;23.380;2023-10-13T02:46:56;94941.50;;;9.25;100.00
39301;BME280;25019;42.626;23.380;2023-10-13T02:49:24;94923.72;;;9.14;100.00
39301;BME280;25019;42.626;23.380;2023-10-13T02:51:53;94936.75;;;9.16;100.00
39301;BME280;25019;42.626;23.380;2023-10-13T02:54:21;94943.44;;;9.18;100.00
39301;BME280;25019;42.626;23.380;2023-10-13T02:56:46;94949.63;;;9.12;100.00
39301;BME280;25019;42.626;23.380;2023-10-13T02:59:29;94955.75;;;9.12;100.00
39301;BME280;25019;42.626;23.380;2023-10-13T03:02:06;94964.94;;;9.10;100.00
39301;BME280;25019;42.626;23.380;2023-10-13T03:04:59;94899.91;;;8.65;100.00
39301;BME280;25019;42.626;23.380;2023-10-13T03:07:28;94911.03;;;8.74;100.00
39301;BME280;25019;42.626;23.380;2023-10-13T03:09:58;94964.84;;;9.05;100.00
39301;BME280;25019;42.626;23.380;2023-10-13T03:12:26;94967.94;;;9.02;100.00
39301;BME280;25019;42.626;23.380;2023-10-13T03:14:53;94967.34;;;8.99;100.00
39301;BME280;25019;42.626;23.380;2023-10-13T03:17:42;94966.16;;;8.95;100.00
39301;BME280;25019;42.626;23.380;2023-10-13T03:20:16;94967.88;;;8.90;100.00
39301;BME280;25019;42.626;23.380;2023-10-13T03:22:48;94931.97;;;8.75;100.00
39301;BME280;25019;42.626;23.380;2023-10-13T03:25:18;94970.06;;;8.93;100.00
39301;BME280;25019;42.626;23.380;2023-10-13T03:27:51;94913.91;;;8.53;100.00
39301;BME280;25019;42.626;23.380;2023-10-13T03:30:17;94976.84;;;8.89;100.00
39301;BME280;25019;42.626;23.380;2023-10-13T03:32:43;94971.56;;;8.89;100.00
39301;BME280;25019;42.626;23.380;2023-10-13T03:35:12;94971.13;;;8.92;100.00
39301;BME280;25019;42.626;23.380;2023-10-13T03:37:51;94965.00;;;8.91;100.00
39301;BME280;25019;42.626;23.380;2023-10-13T03:40:16;94964.53;;;8.94;100.00
39301;BME280;25019;42.626;23.380;2023-10-13T03:42:48;94963.97;;;8.92;100.00
39301;BME280;25019;42.626;23.380;2023-10-13T03:45:33;94961.31;;;8.92;100.00
39301;BME280;25019;42.626;23.380;2023-10-13T03:50:40;94960.22;;;8.81;100.00
39301;BME280;25019;42.626;23.380;2023-10-13T03:53:14;94895.16;;;8.36;100.00
39301;BME280;25019;42.626;23.380;2023-10-13T03:55:40;94944.03;;;8.71;100.00
39301;BME280;25019;42.626;23.380;2023-10-13T03:58:16;94946.69;;;8.71;100.00
39301;BME280;25019;42.626;23.380;2023-10-13T04:00:45;94936.09;;;8.71;100.00
39301;BME280;25019;42.626;23.380;2023-10-13T04:03:11;94920.31;;;8.64;100.00
39301;BME280;25019;42.626;23.380;2023-10-13T04:05:41;94930.44;;;8.67;100.00
39301;BME280;25019;42.626;23.380;2023-10-13T04:08:12;94861.19;;;8.33;100.00
39301;BME280;25019;42.626;23.380;2023-10-13T04:10:54;94913.38;;;8.63;100.00
39301;BME280;25019;42.626;23.380;2023-10-13T04:13:20;94896.19;;;8.54;100.00
39301;BME280;25019;42.626;23.380;2023-10-13T04:16:07;94915.75;;;8.72;100.00
39301;BME280;25019;42.626;23.380;2023-10-13T04:18:49;94853.69;;;8.30;100.00
39301;BME280;25019;42.626;23.380;2023-10-13T04:21:24;94912.72;;;8.68;100.00
39301;BME280;25019;42.626;23.380;2023-10-13T04:27:39;94913.38;;;8.63;100.00
39301;BME280;25019;42.626;23.380;2023-10-13T04:30:09;94940.38;;;8.72;100.00
39301;BME280;25019;42.626;23.380;2023-10-13T04:32:49;94915.53;;;8.54;100.00
39301;BME280;25019;42.626;23.380;2023-10-13T04:35:32;94945.81;;;8.77;100.00
39301;BME280;25019;42.626;23.380;2023-10-13T04:38:01;94938.91;;;8.76;100.00
39301;BME280;25019;42.626;23.380;2023-10-13T04:40:40;94907.44;;;8.49;100.00
39301;BME280;25019;42.626;23.380;2023-10-13T04:43:23;94961.53;;;8.91;100.00
39301;BME280;25019;42.626;23.380;2023-10-13T04:45:59;94870.75;;;8.34;100.00
39301;BME280;25019;42.626;23.380;2023-10-13T04:48:39;94951.00;;;8.84;100.00
39301;BME280;25019;42.626;23.380;2023-10-13T04:51:06;94952.63;;;8.85;100.00
39301;BME280;25019;42.626;23.380;2023-10-13T04:53:59;94971.81;;;8.99;100.00
39301;BME280;25019;42.626;23.380;2023-10-13T04:56:25;94962.84;;;9.00;100.00
39301;BME280;25019;42.626;23.380;2023-10-13T04:59:23;94978.78;;;9.12;100.00
39301;BME280;25019;42.626;23.380;2023-10-13T05:02:02;94980.78;;;9.17;100.00
39301;BME280;25019;42.626;23.380;2023-10-13T05:04:57;94977.69;;;9.20;100.00
39301;BME280;25019;42.626;23.380;2023-10-13T05:07:38;94994.06;;;9.28;100.00
39301;BME280;25019;42.626;23.380;2023-10-13T05:10:23;94997.66;;;9.34;100.00
39301;BME280;25019;42.626;23.380;2023-10-13T05:13:07;94981.13;;;9.20;100.00
39301;BME280;25019;42.626;23.380;2023-10-13T05:15:52;94984.84;;;9.31;100.00
39301;BME280;25019;42.626;23.380;2023-10-13T05:18:37;94998.38;;;9.41;100.00
39301;BME280;25019;42.626;23.380;2023-10-13T05:21:21;94968.72;;;9.33;100.00
39301;BME280;25019;42.626;23.380;2023-10-13T05:24:06;94981.06;;;9.39;100.00
39301;BME280;25019;42.626;23.380;2023-10-13T05:26:51;94996.53;;;9.54;100.00
39301;BME280;25019;42.626;23.380;2023-10-13T05:29:39;94974.28;;;9.43;100.00
39301;BME280;25019;42.626;23.380;2023-10-13T05:32:24;95009.03;;;9.65;100.00
39301;BME280;25019;42.626;23.380;2023-10-13T05:35:08;94889.34;;;8.95;100.00
39301;BME280;25019;42.626;23.380;2023-10-13T05:37:53;95018.19;;;9.81;100.00
39301;BME280;25019;42.626;23.380;2023-10-13T05:40:37;95006.53;;;9.82;100.00
39301;BME280;25019;42.626;23.380;2023-10-13T05:43:21;94943.97;;;9.51;100.00
39301;BME280;25019;42.626;23.380;2023-10-13T05:46:06;95020.88;;;10.05;100.00
39301;BME280;25019;42.626;23.380;2023-10-13T05:48:53;95021.56;;;10.12;100.00
39301;BME280;25019;42.626;23.380;2023-10-13T05:51:30;95022.38;;;10.25;100.00
39301;BME280;25019;42.626;23.380;2023-10-13T05:54:05;95027.94;;;10.35;100.00
39301;BME280;25019;42.626;23.380;2023-10-13T05:59:25;95009.13;;;10.48;100.00
39301;BME280;25019;42.626;23.380;2023-10-13T06:02:09;95013.94;;;10.63;100.00
39301;BME280;25019;42.626;23.380;2023-10-13T06:04:54;95021.69;;;10.77;100.00
39301;BME280;25019;42.626;23.380;2023-10-13T06:07:38;95011.63;;;10.79;100.00
39301;BME280;25019;42.626;23.380;2023-10-13T06:10:22;95021.97;;;10.92;100.00
39301;BME280;25019;42.626;23.380;2023-10-13T06:13:07;94941.59;;;10.44;100.00
39301;BME280;25019;42.626;23.380;2023-10-13T06:15:51;94954.47;;;10.64;100.00
39301;BME280;25019;42.626;23.380;2023-10-13T06:18:36;94982.13;;;10.92;100.00
39301;BME280;25019;42.626;23.380;2023-10-13T06:21:20;94968.66;;;10.82;100.00
39301;BME280;25019;42.626;23.380;2023-10-13T06:24:06;94996.88;;;11.12;99.40
39301;BME280;25019;42.626;23.380;2023-10-13T06:26:51;95009.66;;;11.27;100.00
39301;BME280;25019;42.626;23.380;2023-10-13T06:29:36;95044.53;;;11.60;99.35
39301;BME280;25019;42.626;23.380;2023-10-13T06:32:02;95030.91;;;11.56;98.93
39301;BME280;25019;42.626;23.380;2023-10-13T06:34:36;95046.88;;;11.73;98.78
39301;BME280;25019;42.626;23.380;2023-10-13T06:37:14;95050.47;;;11.79;98.42
39301;BME280;25019;42.626;23.380;2023-10-13T06:39:56;95059.66;;;11.88;96.63
39301;BME280;25019;42.626;23.380;2023-10-13T06:42:27;95065.16;;;11.98;96.12
39301;BME280;25019;42.626;23.380;2023-10-13T06:44:57;95055.53;;;12.09;95.42
39301;BME280;25019;42.626;23.380;2023-10-13T06:47:25;94994.09;;;11.82;94.52
39301;BME280;25019;42.626;23.380;2023-10-13T06:49:53;95038.81;;;12.14;94.26
39301;BME280;25019;42.626;23.380;2023-10-13T06:52:21;95054.31;;;12.34;94.13
39301;BME280;25019;42.626;23.380;2023-10-13T06:54:54;95034.13;;;12.38;93.57
39301;BME280;25019;42.626;23.380;2023-10-13T06:57:21;94990.66;;;12.16;92.85
39301;BME280;25019;42.626;23.380;2023-10-13T06:59:47;95043.47;;;12.58;92.95
39301;BME280;25019;42.626;23.380;2023-10-13T07:02:13;95042.25;;;12.66;92.10
39301;BME280;25019;42.626;23.380;2023-10-13T07:04:48;95037.06;;;12.76;91.62
39301;BME280;25019;42.626;23.380;2023-10-13T07:07:16;95032.28;;;12.78;90.71
39301;BME280;25019;42.626;23.380;2023-10-13T07:09:42;95035.66;;;12.91;90.34
39301;BME280;25019;42.626;23.380;2023-10-13T07:12:24;95022.69;;;12.99;90.00
39301;BME280;25019;42.626;23.380;2023-10-13T07:14:53;95020.41;;;13.08;89.62
39301;BME280;25019;42.626;23.380;2023-10-13T07:17:25;94965.16;;;12.81;88.89
39301;BME280;25019;42.626;23.380;2023-10-13T07:19:52;94974.09;;;12.92;87.64
39301;BME280;25019;42.626;23.380;2023-10-13T07:22:25;95008.09;;;13.29;86.69
39301;BME280;25019;42.626;23.380;2023-10-13T07:24:53;95024.84;;;13.47;85.84
39301;BME280;25019;42.626;23.380;2023-10-13T07:27:19;95028.75;;;13.61;85.58
39301;BME280;25019;42.626;23.380;2023-10-13T07:29:53;94979.38;;;13.37;84.92
39301;BME280;25019;42.626;23.380;2023-10-13T07:32:32;95035.13;;;13.88;83.94
39301;BME280;25019;42.626;23.380;2023-10-13T07:34:59;94978.59;;;13.63;83.47
39301;BME280;25019;42.626;23.380;2023-10-13T07:37:35;95021.66;;;14.05;82.58
39301;BME280;25019;42.626;23.380;2023-10-13T07:40:01;94964.06;;;13.82;81.79
39301;BME280;25019;42.626;23.380;2023-10-13T07:45:10;95029.16;;;14.46;80.67
39301;BME280;25019;42.626;23.380;2023-10-13T07:47:39;94964.09;;;14.24;80.00
39301;BME280;25019;42.626;23.380;2023-10-13T07:50:05;95020.81;;;14.75;79.04
39301;BME280;25019;42.626;23.380;2023-10-13T07:52:32;94834.81;;;13.72;78.34
39301;BME280;25019;42.626;23.380;2023-10-13T07:55:19;95002.19;;;14.90;78.17
39301;BME280;25019;42.626;23.380;2023-10-13T07:57:47;95005.75;;;15.11;77.50
39301;BME280;25019;42.626;23.380;2023-10-13T08:00:24;94990.22;;;15.13;77.06
39301;BME280;25019;42.626;23.380;2023-10-13T08:03:08;95007.97;;;15.40;75.95
39301;BME280;25019;42.626;23.380;2023-10-13T08:05:43;95009.34;;;15.58;75.45
39301;BME280;25019;42.626;23.380;2023-10-13T08:08:24;95008.34;;;15.75;74.43
39301;BME280;25019;42.626;23.380;2023-10-13T08:11:05;95008.91;;;15.98;73.57
39301;BME280;25019;42.626;23.380;2023-10-13T08:13:59;95002.19;;;16.21;72.50
39301;BME280;25019;42.626;23.380;2023-10-13T08:16:29;95000.06;;;16.23;71.92
39301;BME280;25019;42.626;23.380;2023-10-13T08:19:19;94999.78;;;16.45;70.84
39301;BME280;25019;42.626;23.380;2023-10-13T08:21:47;94994.59;;;16.75;70.13
39301;BME280;25019;42.626;23.380;2023-10-13T08:24:23;94998.09;;;16.86;68.63
39301;BME280;25019;42.626;23.380;2023-10-13T08:27:13;94980.09;;;16.91;68.46
39301;BME280;25019;42.626;23.380;2023-10-13T08:30:03;95009.25;;;17.19;68.28
39301;BME280;25019;42.626;23.380;2023-10-13T08:32:47;95016.16;;;17.35;67.61
39301;BME280;25019;42.626;23.380;2023-10-13T08:35:42;95016.94;;;17.41;66.59
39301;BME280;25019;42.626;23.380;2023-10-13T08:38:20;95017.16;;;17.50;66.34
39301;BME280;25019;42.626;23.380;2023-10-13T08:40:58;95030.19;;;17.72;65.63
39301;BME280;25019;42.626;23.380;2023-10-13T08:43:43;95009.66;;;17.87;64.88
39301;BME280;25019;42.626;23.380;2023-10-13T08:46:11;95000.75;;;17.96;64.16
39301;BME280;25019;42.626;23.380;2023-10-13T08:48:53;95006.59;;;18.09;63.08
39301;BME280;25019;42.626;23.380;2023-10-13T08:51:33;94994.50;;;18.11;62.79
39301;BME280;25019;42.626;23.380;2023-10-13T08:54:13;94990.19;;;18.10;62.46
39301;BME280;25019;42.626;23.380;2023-10-13T08:57:02;94981.66;;;17.98;62.65
39301;BME280;25019;42.626;23.380;2023-10-13T08:59:47;95005.25;;;18.11;62.75
39301;BME280;25019;42.626;23.380;2023-10-13T09:02:22;94964.28;;;17.85;62.76
39301;BME280;25019;42.626;23.380;2023-10-13T09:05:09;95006.56;;;18.14;62.72
39301;BME280;25019;42.626;23.380;2023-10-13T09:07:55;95004.38;;;18.16;62.62
39301;BME280;25019;42.626;23.380;2023-10-13T09:10:23;94951.66;;;17.86;62.19
39301;BME280;25019;42.626;23.380;2023-10-13T09:13:10;94993.81;;;18.25;62.05
39301;BME280;25019;42.626;23.380;2023-10-13T09:15:44;94937.28;;;18.06;61.60
39301;BME280;25019;42.626;23.380;2023-10-13T09:18:25;94971.03;;;18.47;61.04
39301;BME280;25019;42.626;23.380;2023-10-13T09:21:10;94995.19;;;18.81;59.84
39301;BME280;25019;42.626;23.380;2023-10-13T09:23:55;94943.88;;;18.72;58.99
39301;BME280;25019;42.626;23.380;2023-10-13T09:26:41;94945.31;;;18.89;58.84
39301;BME280;25019;42.626;23.380;2023-10-13T09:29:17;94936.56;;;19.02;58.26
39301;BME280;25019;42.626;23.380;2023-10-13T09:31:47;94976.75;;;19.56;57.73
39301;BME280;25019;42.626;23.380;2023-10-13T09:34:21;94979.56;;;19.89;57.20
39301;BME280;25019;42.626;23.380;2023-10-13T09:36:49;94973.63;;;20.06;56.71
39301;BME280;25019;42.626;23.380;2023-10-13T09:39:24;94969.50;;;20.28;55.84
39301;BME280;25019;42.626;23.380;2023-10-13T09:42:00;94916.84;;;20.17;55.07
39301;BME280;25019;42.626;23.380;2023-10-13T09:44:28;94881.81;;;20.17;54.34
39301;BME280;25019;42.626;23.380;2023-10-13T09:47:01;94941.69;;;20.75;52.62
39301;BME280;25019;42.626;23.380;2023-10-13T09:49:39;94933.22;;;20.82;51.62
39301;BME280;25019;42.626;23.380;2023-10-13T09:52:15;94927.41;;;20.88;51.23
39301;BME280;25019;42.626;23.380;2023-10-13T09:55:11;94957.00;;;21.07;51.37
39301;BME280;25019;42.626;23.380;2023-10-13T09:57:41;94956.69;;;21.09;50.69
39301;BME280;25019;42.626;23.380;2023-10-13T10:00:18;94953.88;;;21.14;50.69
39301;BME280;25019;42.626;23.380;2023-10-13T10:06:09;94950.91;;;21.16;50.12
39301;BME280;25019;42.626;23.380;2023-10-13T10:08:44;94945.69;;;21.19;50.11
39301;BME280;25019;42.626;23.380;2023-10-13T10:14:10;94945.16;;;21.31;48.48
39301;BME280;25019;42.626;23.380;2023-10-13T10:19:17;94934.53;;;21.35;48.31
39301;BME280;25019;42.626;23.380;2023-10-13T10:24:16;94930.03;;;21.44;47.64
39301;BME280;25019;42.626;23.380;2023-10-13T10:26:55;94928.22;;;21.53;47.44
39301;BME280;25019;42.626;23.380;2023-10-13T10:29:21;94877.41;;;21.42;47.34
39301;BME280;25019;42.626;23.380;2023-10-13T10:31:50;94912.53;;;21.78;47.43
39301;BME280;25019;42.626;23.380;2023-10-13T10:34:16;94876.22;;;21.70;46.59
39301;BME280;25019;42.626;23.380;2023-10-13T10:36:48;94914.38;;;22.14;46.29
39301;BME280;25019;42.626;23.380;2023-10-13T10:39:19;94911.56;;;22.28;45.60
39301;BME280;25019;42.626;23.380;2023-10-13T10:41:45;94916.28;;;22.45;43.50
39301;BME280;25019;42.626;23.380;2023-10-13T10:44:16;94841.59;;;22.04;41.74
39301;BME280;25019;42.626;23.380;2023-10-13T10:46:43;94918.72;;;22.56;41.09
39301;BME280;25019;42.626;23.380;2023-10-13T10:49:23;94816.72;;;21.93;40.57
39301;BME280;25019;42.626;23.380;2023-10-13T10:52:16;94910.97;;;22.63;41.09
39301;BME280;25019;42.626;23.380;2023-10-13T10:54:44;94842.66;;;22.26;41.16
39301;BME280;25019;42.626;23.380;2023-10-13T10:57:16;94893.47;;;22.69;41.25
39301;BME280;25019;42.626;23.380;2023-10-13T10:59:44;94848.50;;;22.51;40.81
39301;BME280;25019;42.626;23.380;2023-10-13T11:02:10;94802.88;;;22.26;40.63
39301;BME280;25019;42.626;23.380;2023-10-13T11:04:43;94853.59;;;22.52;40.00
39301;BME280;25019;42.626;23.380;2023-10-13T11:07:25;94894.94;;;22.84;39.43
39301;BME280;25019;42.626;23.380;2023-10-13T11:09:53;94898.66;;;22.97;39.59
39301;BME280;25019;42.626;23.380;2023-10-13T11:12:22;94905.94;;;22.88;39.68
39301;BME280;25019;42.626;23.380;2023-10-13T11:14:48;94893.19;;;22.88;39.58
39301;BME280;25019;42.626;23.380;2023-10-13T11:17:22;94873.56;;;22.74;39.38
39301;BME280;25019;42.626;23.380;2023-10-13T11:20:12;94889.97;;;22.78;39.43
39301;BME280;25019;42.626;23.380;2023-10-13T11:22:47;94826.00;;;22.41;39.21
39301;BME280;25019;42.626;23.380;2023-10-13T11:25:23;94834.97;;;22.51;39.26
39301;BME280;25019;42.626;23.380;2023-10-13T11:27:56;94882.53;;;22.92;39.39
39301;BME280;25019;42.626;23.380;2023-10-13T11:30:22;94871.72;;;22.92;39.43
39301;BME280;25019;42.626;23.380;2023-10-13T11:33:07;94865.53;;;23.09;39.17
39301;BME280;25019;42.626;23.380;2023-10-13T11:35:38;94873.22;;;23.25;39.13
39301;BME280;25019;42.626;23.380;2023-10-13T11:38:26;94875.13;;;23.33;38.52
39301;BME280;25019;42.626;23.380;2023-10-13T11:43:44;94866.19;;;23.24;37.96
39301;BME280;25019;42.626;23.380;2023-10-13T11:46:20;94847.84;;;23.12;37.97
39301;BME280;25019;42.626;23.380;2023-10-13T11:49:08;94837.47;;;23.14;37.76
39301;BME280;25019;42.626;23.380;2023-10-13T11:51:40;94842.09;;;23.13;37.41
39301;BME280;25019;42.626;23.380;2023-10-13T11:54:20;94838.75;;;23.08;37.73
39301;BME280;25019;42.626;23.380;2023-10-13T11:56:49;94854.56;;;23.23;37.86
39301;BME280;25019;42.626;23.380;2023-10-13T11:59:15;94857.22;;;22.97;37.88
39301;BME280;25019;42.626;23.380;2023-10-13T12:01:44;94848.09;;;22.84;38.67
39301;BME280;25019;42.626;23.380;2023-10-13T12:04:29;94823.88;;;22.70;38.24
39301;BME280;25019;42.626;23.380;2023-10-13T12:07:13;94826.59;;;22.70;38.47
39301;BME280;25019;42.626;23.380;2023-10-13T12:09:39;94806.53;;;22.71;39.03
39301;BME280;25019;42.626;23.380;2023-10-13T12:12:29;94823.59;;;22.89;38.11
39301;BME280;25019;42.626;23.380;2023-10-13T12:14:56;94820.25;;;22.92;38.79
39301;BME280;25019;42.626;23.380;2023-10-13T12:17:29;94821.72;;;23.07;39.07
39301;BME280;25019;42.626;23.380;2023-10-13T12:20:06;94828.22;;;22.97;38.48
39301;BME280;25019;42.626;23.380;2023-10-13T12:22:38;94831.56;;;23.03;38.38
39301;BME280;25019;42.626;23.380;2023-10-13T12:25:05;94806.88;;;22.96;38.19
39301;BME280;25019;42.626;23.380;2023-10-13T12:27:45;94822.66;;;23.20;37.95
39301;BME280;25019;42.626;23.380;2023-10-13T12:30:13;94828.75;;;23.34;37.43
39301;BME280;25019;42.626;23.380;2023-10-13T12:32:42;94790.47;;;23.18;36.92
39301;BME280;25019;42.626;23.380;2023-10-13T12:35:20;94824.59;;;23.55;37.28
39301;BME280;25019;42.626;23.380;2023-10-13T12:38:13;94780.31;;;23.24;37.52
39301;BME280;25019;42.626;23.380;2023-10-13T12:40:57;94817.44;;;23.41;37.00
39301;BME280;25019;42.626;23.380;2023-10-13T12:43:41;94814.56;;;23.38;36.95
39301;BME280;25019;42.626;23.380;2023-10-13T12:46:26;94818.06;;;23.47;37.39
39301;BME280;25019;42.626;23.380;2023-10-13T12:49:11;94817.09;;;23.52;37.02
39301;BME280;25019;42.626;23.380;2023-10-13T12:51:55;94818.19;;;23.59;36.98
39301;BME280;25019;42.626;23.380;2023-10-13T12:54:20;94796.84;;;23.58;36.46
39301;BME280;25019;42.626;23.380;2023-10-13T12:56:49;94794.75;;;23.63;36.32
39301;BME280;25019;42.626;23.380;2023-10-13T12:59:22;94804.81;;;23.63;37.33
39301;BME280;25019;42.626;23.380;2023-10-13T13:01:52;94811.31;;;23.71;37.08
39301;BME280;25019;42.626;23.380;2023-10-13T13:04:18;94809.41;;;23.71;37.06
39301;BME280;25019;42.626;23.380;2023-10-13T13:06:51;94807.63;;;23.75;36.98
39301;BME280;25019;42.626;23.380;2023-10-13T13:09:19;94776.75;;;23.59;36.48
39301;BME280;25019;42.626;23.380;2023-10-13T13:11:54;94807.19;;;23.64;36.73
39301;BME280;25019;42.626;23.380;2023-10-13T13:14:24;94797.97;;;23.57;36.70
39301;BME280;25019;42.626;23.380;2023-10-13T13:16:56;94730.38;;;23.16;36.74
39301;BME280;25019;42.626;23.380;2023-10-13T13:19:36;94804.94;;;23.75;36.73
39301;BME280;25019;42.626;23.380;2023-10-13T13:22:07;94783.09;;;23.72;36.46
39301;BME280;25019;42.626;23.380;2023-10-13T13:24:44;94796.97;;;23.79;36.35
39301;BME280;25019;42.626;23.380;2023-10-13T13:27:11;94806.97;;;23.87;35.83
39301;BME280;25019;42.626;23.380;2023-10-13T13:29:42;94783.25;;;23.75;35.49
39301;BME280;25019;42.626;23.380;2023-10-13T13:32:08;94710.31;;;23.17;35.95
39301;BME280;25019;42.626;23.380;2023-10-13T13:34:47;94811.75;;;23.90;36.14
39301;BME280;25019;42.626;23.380;2023-10-13T13:37:33;94791.22;;;23.81;36.62
39301;BME280;25019;42.626;23.380;2023-10-13T13:39:59;94803.78;;;23.94;36.59
39301;BME280;25019;42.626;23.380;2023-10-13T13:42:45;94800.13;;;23.99;36.66
39301;BME280;25019;42.626;23.380;2023-10-13T13:45:18;94704.56;;;23.37;36.64
39301;BME280;25019;42.626;23.380;2023-10-13T13:47:49;94807.75;;;24.05;36.55
39301;BME280;25019;42.626;23.380;2023-10-13T13:50:22;94810.16;;;24.07;36.21
39301;BME280;25019;42.626;23.380;2023-10-13T13:52:56;94756.09;;;23.84;36.32
39301;BME280;25019;42.626;23.380;2023-10-13T13:55:23;94750.22;;;23.73;36.46
39301;BME280;25019;42.626;23.380;2023-10-13T13:57:50;94821.47;;;24.09;36.09